createdAt,value
2023-03-28T00:01:46.606Z,42.57
2023-03-28T00:04:13.865Z,42.39
2023-03-28T00:06:45.607Z,42.26
2023-03-28T00:09:12.814Z,42.27
2023-03-28T00:11:39.563Z,42.24
2023-03-28T00:14:08.417Z,42.53
2023-03-28T00:16:39.386Z,42.68
2023-03-28T00:19:09.740Z,42.54
2023-03-28T00:21:38.032Z,42.78
2023-03-28T00:24:06.522Z,42.62
2023-03-28T00:26:34.503Z,42.62
2023-03-28T00:29:02.046Z,42.63
2023-03-28T00:31:29.043Z,42.64
2023-03-28T00:33:56.501Z,42.58
2023-03-28T00:36:26.771Z,42.74
2023-03-28T00:38:54.059Z,42.73
2023-03-28T00:41:24.760Z,42.64
2023-03-28T00:43:53.411Z,42.60
2023-03-28T00:46:23.088Z,42.73
2023-03-28T00:48:52.582Z,42.71
2023-03-28T00:51:21.595Z,42.81
2023-03-28T00:53:48.736Z,42.76
2023-03-28T00:56:16.609Z,42.53
2023-03-28T00:58:43.772Z,42.66
2023-03-28T01:01:12.231Z,42.62
2023-03-28T01:03:41.387Z,42.50
2023-03-28T01:06:08.702Z,42.47
2023-03-28T01:08:38.089Z,42.67
2023-03-28T01:11:05.572Z,42.62
2023-03-28T01:13:35.127Z,42.79
2023-03-28T01:16:02.993Z,42.75
2023-03-28T01:18:34.612Z,42.93
2023-03-28T01:21:32.154Z,42.65
2023-03-28T01:24:21.206Z,42.68
2023-03-28T01:26:52.951Z,42.91
2023-03-28T01:29:38.540Z,42.92
2023-03-28T01:32:32.695Z,43.02
2023-03-28T01:35:10.579Z,42.72
2023-03-28T01:38:09.566Z,42.83
2023-03-28T01:41:14.704Z,42.75
2023-03-28T01:43:44.451Z,42.67
2023-03-28T01:46:17.133Z,42.46
2023-03-28T01:49:02.325Z,42.71
2023-03-28T01:51:29.364Z,43.06
2023-03-28T01:54:14.976Z,43.21
2023-03-28T01:56:53.393Z,43.22
2023-03-28T01:59:23.628Z,42.83
2023-03-28T02:01:56.222Z,43.20
2023-03-28T02:04:23.147Z,43.20
2023-03-28T02:06:50.228Z,43.08
2023-03-28T02:09:17.560Z,43.11
2023-03-28T02:11:44.635Z,43.14
2023-03-28T02:14:17.386Z,43.19
2023-03-28T02:16:44.499Z,42.99
2023-03-28T02:19:11.638Z,43.15
2023-03-28T02:21:54.137Z,42.97
2023-03-28T02:24:21.156Z,43.07
2023-03-28T02:26:48.211Z,42.85
2023-03-28T02:29:16.043Z,43.06
2023-03-28T02:31:43.118Z,42.84
2023-03-28T02:34:10.405Z,42.76
2023-03-28T02:36:40.475Z,43.18
2023-03-28T02:39:07.403Z,42.85
2023-03-28T02:41:40.213Z,43.21
2023-03-28T02:44:46.189Z,43.17
2023-03-28T02:47:15.997Z,43.00
2023-03-28T02:49:54.987Z,43.32
2023-03-28T02:52:51.456Z,43.02
2023-03-28T02:55:18.151Z,43.17
2023-03-28T02:57:47.975Z,43.47
2023-03-28T03:00:16.615Z,43.22
2023-03-28T03:02:44.010Z,43.16
2023-03-28T03:05:11.791Z,42.89
2023-03-28T03:07:38.877Z,42.85
2023-03-28T03:10:07.020Z,42.85
2023-03-28T03:12:34.664Z,43.14
2023-03-28T03:15:01.742Z,43.34
2023-03-28T03:17:28.894Z,43.43
2023-03-28T03:19:56.164Z,43.05
2023-03-28T03:22:23.498Z,43.04
2023-03-28T03:24:53.196Z,42.97
2023-03-28T03:27:20.749Z,43.34
2023-03-28T03:29:48.461Z,43.24
2023-03-28T03:32:15.578Z,43.36
2023-03-28T03:34:42.374Z,43.24
2023-03-28T03:37:09.639Z,43.38
2023-03-28T03:39:36.402Z,43.26
2023-03-28T03:42:04.109Z,43.43
2023-03-28T03:44:31.118Z,43.32
2023-03-28T03:46:58.180Z,43.10
2023-03-28T03:49:24.901Z,43.20
2023-03-28T03:51:52.083Z,43.15
2023-03-28T03:54:18.913Z,43.52
2023-03-28T03:56:46.529Z,43.05
2023-03-28T03:59:13.347Z,43.13
2023-03-28T04:01:41.552Z,43.40
2023-03-28T04:04:08.533Z,43.33
2023-03-28T04:06:35.824Z,43.57
2023-03-28T04:09:02.583Z,43.77
2023-03-28T04:11:29.638Z,43.45
2023-03-28T04:13:56.480Z,43.93
2023-03-28T04:16:23.944Z,43.96
2023-03-28T04:18:51.036Z,43.79
2023-03-28T04:21:19.536Z,43.78
2023-03-28T04:23:48.376Z,43.87
2023-03-28T04:26:20.497Z,43.83
2023-03-28T04:28:48.168Z,43.36
2023-03-28T04:31:15.306Z,43.60
2023-03-28T04:33:45.259Z,43.69
2023-03-28T04:36:12.403Z,43.62
2023-03-28T04:38:41.702Z,43.89
2023-03-28T04:41:08.803Z,43.93
2023-03-28T04:43:35.602Z,43.71
2023-03-28T04:46:03.096Z,44.14
2023-03-28T04:48:31.216Z,43.93
2023-03-28T04:50:58.271Z,43.78
2023-03-28T04:53:25.302Z,44.67
2023-03-28T04:55:52.485Z,44.40
2023-03-28T04:58:20.671Z,44.72
2023-03-28T05:00:49.090Z,43.99
2023-03-28T05:03:22.370Z,44.32
2023-03-28T05:05:51.363Z,43.92
2023-03-28T05:08:20.337Z,44.06
2023-03-28T05:10:47.405Z,44.09
2023-03-28T05:13:14.311Z,44.12
2023-03-28T05:15:42.342Z,43.79
2023-03-28T05:18:09.300Z,44.09
2023-03-28T05:20:36.543Z,43.83
2023-03-28T05:23:03.641Z,43.71
2023-03-28T05:25:30.465Z,43.97
2023-03-28T05:27:57.794Z,43.81
2023-03-28T05:30:24.615Z,43.92
2023-03-28T05:32:51.710Z,43.83
2023-03-28T05:35:18.603Z,43.95
2023-03-28T05:37:47.018Z,43.98
2023-03-28T05:40:15.461Z,43.88
2023-03-28T05:42:42.698Z,44.13
2023-03-28T05:45:09.961Z,43.97
2023-03-28T05:47:37.058Z,44.08
2023-03-28T05:50:04.185Z,44.03
2023-03-28T05:52:31.211Z,44.26
2023-03-28T05:54:58.269Z,43.80
2023-03-28T05:57:25.448Z,44.12
2023-03-28T05:59:52.252Z,43.87
2023-03-28T06:02:20.587Z,43.97
2023-03-28T06:04:47.652Z,44.35
2023-03-28T06:07:14.888Z,44.22
2023-03-28T06:09:42.243Z,44.01
2023-03-28T06:12:09.454Z,44.13
2023-03-28T06:14:36.196Z,44.62
2023-03-28T06:17:03.457Z,44.46
2023-03-28T06:19:30.375Z,44.05
2023-03-28T06:21:57.457Z,44.27
2023-03-28T06:24:24.223Z,44.38
2023-03-28T06:26:51.543Z,44.67
2023-03-28T06:29:19.690Z,44.49
2023-03-28T06:31:46.873Z,44.43
2023-03-28T06:34:13.645Z,44.49
2023-03-28T06:36:40.858Z,44.39
2023-03-28T06:39:07.658Z,44.42
2023-03-28T06:41:35.088Z,44.70
2023-03-28T06:44:01.829Z,44.63
2023-03-28T06:46:29.013Z,44.55
2023-03-28T06:48:55.876Z,44.71
2023-03-28T06:51:23.006Z,44.68
2023-03-28T06:53:49.733Z,44.58
2023-03-28T06:56:16.857Z,44.96
2023-03-28T06:58:43.675Z,45.21
2023-03-28T07:01:11.078Z,44.71
2023-03-28T07:03:37.964Z,44.89
2023-03-28T07:06:06.604Z,44.64
2023-03-28T07:08:33.545Z,44.51
2023-03-28T07:11:00.771Z,44.42
2023-03-28T07:13:27.718Z,44.51
2023-03-28T07:16:05.560Z,44.83
2023-03-28T07:18:32.468Z,44.90
2023-03-28T07:21:03.873Z,44.71
2023-03-28T07:23:31.320Z,44.67
2023-03-28T07:25:58.389Z,44.67
2023-03-28T07:28:25.156Z,44.79
2023-03-28T07:30:53.707Z,44.51
2023-03-28T07:33:26.684Z,44.60
2023-03-28T07:36:01.435Z,44.73
2023-03-28T07:38:28.248Z,44.86
2023-03-28T07:40:55.293Z,44.86
2023-03-28T07:43:22.077Z,44.47
2023-03-28T07:45:49.213Z,44.72
2023-03-28T07:48:16.114Z,44.46
2023-03-28T07:50:43.188Z,44.85
2023-03-28T07:53:09.941Z,44.65
2023-03-28T07:58:08.915Z,44.30
2023-03-28T08:00:36.399Z,44.53
2023-03-28T08:03:03.317Z,44.29
2023-03-28T08:05:34.137Z,44.28
2023-03-28T08:08:01.220Z,44.19
2023-03-28T08:10:28.323Z,44.10
2023-03-28T08:12:55.286Z,43.90
2023-03-28T08:15:22.323Z,43.58
2023-03-28T08:17:49.123Z,43.74
2023-03-28T08:20:16.312Z,43.56
2023-03-28T08:22:43.071Z,43.65
2023-03-28T08:25:10.153Z,43.74
2023-03-28T08:27:36.878Z,43.43
2023-03-28T08:30:04.507Z,43.33
2023-03-28T08:32:31.281Z,43.31
2023-03-28T08:34:58.336Z,43.43
2023-03-28T08:37:25.235Z,43.44
2023-03-28T08:39:52.316Z,43.47
2023-03-28T08:42:37.363Z,42.77
2023-03-28T08:45:25.994Z,43.01
2023-03-28T08:47:56.880Z,43.04
2023-03-28T08:50:51.290Z,43.00
2023-03-28T08:53:22.795Z,42.85
2023-03-28T08:55:51.137Z,42.98
2023-03-28T08:58:21.510Z,42.83
2023-03-28T09:00:51.523Z,42.82
2023-03-28T09:03:22.467Z,42.34
2023-03-28T09:05:51.676Z,42.56
2023-03-28T09:08:24.548Z,42.21
2023-03-28T09:10:58.439Z,42.35
2023-03-28T09:13:40.790Z,41.91
2023-03-28T09:16:32.718Z,42.46
2023-03-28T09:19:10.512Z,42.13
2023-03-28T09:21:37.686Z,42.01
2023-03-28T09:24:20.966Z,42.09
2023-03-28T09:27:03.739Z,42.25
2023-03-28T09:29:30.708Z,41.92
2023-03-28T09:32:01.212Z,41.81
2023-03-28T09:34:30.704Z,41.69
2023-03-28T09:37:00.023Z,41.66
2023-03-28T09:39:32.769Z,41.72
2023-03-28T09:42:12.565Z,41.69
2023-03-28T09:44:54.183Z,41.58
2023-03-28T09:47:22.405Z,41.93
2023-03-28T09:49:54.334Z,41.59
2023-03-28T09:52:26.492Z,41.22
2023-03-28T09:54:53.274Z,41.44
2023-03-28T09:57:20.668Z,41.80
2023-03-28T09:59:47.428Z,41.14
2023-03-28T10:02:34.798Z,41.37
2023-03-28T10:05:04.031Z,40.97
2023-03-28T10:07:34.959Z,41.27
2023-03-28T10:10:09.780Z,41.03
2023-03-28T10:12:37.977Z,40.66
2023-03-28T10:15:05.360Z,41.05
2023-03-28T10:17:35.485Z,40.82
2023-03-28T10:20:22.073Z,40.67
2023-03-28T10:22:50.431Z,40.90
2023-03-28T10:25:20.678Z,40.97
2023-03-28T10:27:48.158Z,40.74
2023-03-28T10:30:22.597Z,40.83
2023-03-28T10:33:17.628Z,40.84
2023-03-28T10:35:54.959Z,41.12
2023-03-28T10:38:22.416Z,41.10
2023-03-28T10:41:32.781Z,40.96
2023-03-28T10:43:59.815Z,41.00
2023-03-28T10:46:34.711Z,40.82
2023-03-28T10:49:06.343Z,41.27
2023-03-28T10:51:33.139Z,40.94
2023-03-28T10:54:12.279Z,41.02
2023-03-28T10:56:52.678Z,40.32
2023-03-28T10:59:39.174Z,40.31
2023-03-28T11:02:09.048Z,39.90
2023-03-28T11:04:54.825Z,39.46
2023-03-28T11:07:54.368Z,39.13
2023-03-28T11:10:37.063Z,38.96
2023-03-28T11:13:21.860Z,38.69
2023-03-28T11:15:59.174Z,39.35
2023-03-28T11:18:43.334Z,39.27
2023-03-28T11:21:26.897Z,39.28
2023-03-28T11:24:24.683Z,38.87
2023-03-28T11:27:14.768Z,38.76
2023-03-28T11:29:44.598Z,38.46
2023-03-28T11:32:44.031Z,38.72
2023-03-28T11:35:36.417Z,38.28
2023-03-28T11:38:22.418Z,38.26
2023-03-28T11:40:53.027Z,38.06
2023-03-28T11:43:41.366Z,38.93
2023-03-28T11:46:10.010Z,39.65
2023-03-28T11:48:42.426Z,40.01
2023-03-28T11:51:12.855Z,40.39
2023-03-28T11:53:45.858Z,39.83
2023-03-28T11:56:29.249Z,40.29
2023-03-28T11:59:00.804Z,40.24
2023-03-28T12:01:29.889Z,40.13
2023-03-28T12:04:02.710Z,39.78
2023-03-28T12:07:02.306Z,40.25
2023-03-28T12:09:59.402Z,39.74
2023-03-28T12:12:38.915Z,40.01
2023-03-28T12:15:20.165Z,39.65
2023-03-28T12:17:49.306Z,39.95
2023-03-28T12:21:01.323Z,40.33
2023-03-28T12:23:38.063Z,40.48
2023-03-28T12:26:18.204Z,41.28
2023-03-28T12:28:53.844Z,40.95
2023-03-28T12:31:23.923Z,40.85
2023-03-28T12:34:06.703Z,40.84
2023-03-28T12:36:41.907Z,40.08
2023-03-28T12:39:19.671Z,39.92
2023-03-28T12:41:46.687Z,40.14
2023-03-28T12:44:38.839Z,39.70
2023-03-28T12:47:09.454Z,39.49
2023-03-28T12:49:46.313Z,39.55
2023-03-28T12:52:22.494Z,39.42
2023-03-28T12:55:01.356Z,39.40
2023-03-28T12:57:41.217Z,39.44
2023-03-28T13:00:14.823Z,39.41
2023-03-28T13:02:50.850Z,40.04
2023-03-28T13:05:31.984Z,40.05
2023-03-28T13:08:28.851Z,39.69
2023-03-28T13:11:03.169Z,39.75
2023-03-28T13:13:32.602Z,39.33
2023-03-28T13:16:16.446Z,39.36
2023-03-28T13:18:48.260Z,39.72
2023-03-28T13:21:44.917Z,39.14
2023-03-28T13:24:34.482Z,39.47
2023-03-28T13:27:04.043Z,39.50
2023-03-28T13:29:43.437Z,39.46
2023-03-28T13:32:13.807Z,39.26
2023-03-28T13:34:47.307Z,39.08
2023-03-28T13:37:23.301Z,39.58
2023-03-28T13:39:51.956Z,39.83
2023-03-28T13:42:32.272Z,39.59
2023-03-28T13:45:14.455Z,39.59
2023-03-28T13:47:41.314Z,39.64
2023-03-28T13:50:28.644Z,39.67
2023-03-28T13:52:55.412Z,39.72
2023-03-28T13:55:24.026Z,39.66
2023-03-28T13:57:51.360Z,40.04
2023-03-28T14:00:21.082Z,40.03
2023-03-28T14:02:52.201Z,39.87
2023-03-28T14:05:24.609Z,39.88
2023-03-28T14:07:52.186Z,40.06
2023-03-28T14:10:28.310Z,40.37
2023-03-28T14:13:00.176Z,41.31
2023-03-28T14:15:30.455Z,40.78
2023-03-28T14:17:57.569Z,40.79
2023-03-28T14:20:24.664Z,40.48
2023-03-28T14:22:59.713Z,40.45
2023-03-28T14:25:28.609Z,40.76
2023-03-28T14:27:56.320Z,40.88
2023-03-28T14:30:31.063Z,40.40
2023-03-28T14:33:13.528Z,40.28
2023-03-28T14:35:46.139Z,40.55
2023-03-28T14:38:14.448Z,40.50
2023-03-28T14:40:42.850Z,40.18
2023-03-28T14:43:10.231Z,40.37
2023-03-28T14:45:38.508Z,40.47
2023-03-28T14:48:06.408Z,40.11
2023-03-28T14:50:36.900Z,40.41
2023-03-28T14:53:08.019Z,40.35
2023-03-28T14:55:36.903Z,40.06
2023-03-28T14:58:05.125Z,39.97
2023-03-28T15:00:37.702Z,40.01
2023-03-28T15:03:06.331Z,40.06
2023-03-28T15:05:33.386Z,40.00
2023-03-28T15:08:01.324Z,39.94
2023-03-28T15:10:28.914Z,39.70
2023-03-28T15:13:04.808Z,39.85
2023-03-28T15:15:58.219Z,39.73
2023-03-28T15:18:44.174Z,39.98
2023-03-28T15:21:11.723Z,39.81
2023-03-28T15:23:46.028Z,39.77
2023-03-28T15:26:18.919Z,39.46
2023-03-28T15:28:47.337Z,39.74
2023-03-28T15:31:15.146Z,39.67
2023-03-28T15:33:44.612Z,39.69
2023-03-28T15:36:19.143Z,39.57
2023-03-28T15:38:49.225Z,40.21
2023-03-28T15:41:21.732Z,40.32
2023-03-28T15:43:54.734Z,40.26
2023-03-28T15:46:22.913Z,40.35
2023-03-28T15:48:49.667Z,40.59
2023-03-28T15:51:19.932Z,40.47
2023-03-28T15:53:47.138Z,40.48
2023-03-28T15:56:26.517Z,40.62
2023-03-28T15:58:55.457Z,40.57
2023-03-28T16:01:30.481Z,40.68
2023-03-28T16:04:19.156Z,40.32
2023-03-28T16:06:46.411Z,40.30
2023-03-28T16:09:23.452Z,40.74
2023-03-28T16:11:56.428Z,40.76
2023-03-28T16:14:23.502Z,40.71
2023-03-28T16:16:55.114Z,40.64
2023-03-28T16:19:26.526Z,40.51
2023-03-28T16:21:53.801Z,40.65
2023-03-28T16:24:20.634Z,40.84
2023-03-28T16:26:47.815Z,40.67
2023-03-28T16:29:14.732Z,40.89
2023-03-28T16:31:42.030Z,40.55
2023-03-28T16:34:10.180Z,40.55
2023-03-28T16:36:38.489Z,40.70
2023-03-28T16:39:06.405Z,40.38
2023-03-28T16:41:33.639Z,40.78
2023-03-28T16:44:00.523Z,40.91
2023-03-28T16:46:27.607Z,40.79
2023-03-28T16:48:54.435Z,40.94
2023-03-28T16:51:21.506Z,41.19
2023-03-28T16:53:48.416Z,41.05
2023-03-28T16:56:15.680Z,41.22
2023-03-28T16:58:42.692Z,41.50
2023-03-28T17:01:12.157Z,41.15
2023-03-28T17:03:39.201Z,41.06
2023-03-28T17:06:08.298Z,41.28
2023-03-28T17:08:35.978Z,41.52
2023-03-28T17:11:06.301Z,41.58
2023-03-28T17:13:34.257Z,41.30
2023-03-28T17:16:02.071Z,41.64
2023-03-28T17:18:29.890Z,41.49
2023-03-28T17:21:07.833Z,41.44
2023-03-28T17:23:37.572Z,41.18
2023-03-28T17:26:07.213Z,41.34
2023-03-28T17:28:36.303Z,41.36
2023-03-28T17:31:11.175Z,41.09
2023-03-28T17:33:38.664Z,41.23
2023-03-28T17:36:25.337Z,41.38
2023-03-28T17:38:53.559Z,41.32
2023-03-28T17:41:23.263Z,41.53
2023-03-28T17:43:51.228Z,41.04
2023-03-28T17:46:18.521Z,41.59
2023-03-28T17:48:45.656Z,41.22
2023-03-28T17:51:12.890Z,41.25
2023-03-28T17:53:41.075Z,41.12
2023-03-28T17:56:08.709Z,41.38
2023-03-28T17:58:36.553Z,40.98
2023-03-28T18:01:14.715Z,40.79
2023-03-28T18:03:41.721Z,41.09
2023-03-28T18:06:09.080Z,41.24
2023-03-28T18:08:36.275Z,40.79
2023-03-28T18:11:07.456Z,40.76
2023-03-28T18:13:35.053Z,40.70
2023-03-28T18:16:05.364Z,40.86
2023-03-28T18:18:32.799Z,40.86
2023-03-28T18:21:00.322Z,40.57
2023-03-28T18:23:27.169Z,40.79
2023-03-28T18:25:54.334Z,40.92
2023-03-28T18:28:24.050Z,40.87
2023-03-28T18:30:51.611Z,40.89
2023-03-28T18:33:19.368Z,40.80
2023-03-28T18:35:46.985Z,40.64
2023-03-28T18:38:14.484Z,40.87
2023-03-28T18:40:41.712Z,41.00
2023-03-28T18:43:09.480Z,40.95
2023-03-28T18:45:36.973Z,40.69
2023-03-28T18:48:04.451Z,41.07
2023-03-28T18:50:32.064Z,40.80
2023-03-28T18:52:58.911Z,41.10
2023-03-28T18:55:26.026Z,41.21
2023-03-28T18:57:53.089Z,40.77
2023-03-28T19:00:20.606Z,41.06
2023-03-28T19:02:48.887Z,41.30
2023-03-28T19:05:16.915Z,41.32
2023-03-28T19:07:44.504Z,41.18
2023-03-28T19:10:13.576Z,41.19
2023-03-28T19:12:41.344Z,41.03
2023-03-28T19:15:10.594Z,41.22
2023-03-28T19:17:38.235Z,41.31
2023-03-28T19:20:07.487Z,41.06
2023-03-28T19:22:35.217Z,41.43
2023-03-28T19:25:02.472Z,41.12
2023-03-28T19:27:29.250Z,41.17
2023-03-28T19:29:56.670Z,41.33
2023-03-28T19:32:23.556Z,41.03
2023-03-28T19:34:50.715Z,41.32
2023-03-28T19:37:17.536Z,41.44
2023-03-28T19:39:45.383Z,40.96
2023-03-28T19:42:12.147Z,41.44
2023-03-28T19:44:39.444Z,41.50
2023-03-28T19:47:07.016Z,41.46
2023-03-28T19:49:34.268Z,41.22
2023-03-28T19:52:01.408Z,41.16
2023-03-28T19:54:28.580Z,41.45
2023-03-28T19:56:55.514Z,41.33
2023-03-28T19:59:24.766Z,41.20
2023-03-28T20:01:51.624Z,41.36
2023-03-28T20:04:20.848Z,41.32
2023-03-28T20:06:50.551Z,41.14
2023-03-28T20:09:17.647Z,41.32
2023-03-28T20:11:44.393Z,41.50
2023-03-28T20:14:13.771Z,41.21
2023-03-28T20:16:41.283Z,41.33
2023-03-28T20:19:08.392Z,41.20
2023-03-28T20:21:35.237Z,41.22
2023-03-28T20:24:02.368Z,41.22
2023-03-28T20:26:29.155Z,41.61
2023-03-28T20:29:00.497Z,41.64
2023-03-28T20:31:27.593Z,41.42
2023-03-28T20:33:55.392Z,41.47
2023-03-28T20:36:22.528Z,41.90
2023-03-28T20:38:49.685Z,41.63
2023-03-28T20:41:17.676Z,41.45
2023-03-28T20:43:47.080Z,41.71
2023-03-28T20:46:18.731Z,41.47
2023-03-28T20:48:46.930Z,41.57
2023-03-28T20:51:14.498Z,42.01
2023-03-28T20:53:42.504Z,41.75
2023-03-28T20:56:09.574Z,41.51
2023-03-28T20:58:39.165Z,41.63
2023-03-28T21:01:07.110Z,41.78
2023-03-28T21:03:50.308Z,41.87
2023-03-28T21:06:37.866Z,41.84
2023-03-28T21:09:09.931Z,41.90
2023-03-28T21:11:37.617Z,41.88
2023-03-28T21:14:05.587Z,42.18
2023-03-28T21:16:32.910Z,41.90
2023-03-28T21:19:00.459Z,42.24
2023-03-28T21:21:29.975Z,41.77
2023-03-28T21:23:57.317Z,42.13
2023-03-28T21:26:24.736Z,41.83
2023-03-28T21:28:54.743Z,42.18
2023-03-28T21:31:26.587Z,42.02
2023-03-28T21:33:55.436Z,41.98
2023-03-28T21:36:22.494Z,42.19
2023-03-28T21:38:49.607Z,42.14
2023-03-28T21:41:16.715Z,42.12
2023-03-28T21:43:43.970Z,42.07
2023-03-28T21:46:11.415Z,42.24
2023-03-28T21:48:38.777Z,42.08
2023-03-28T21:51:06.080Z,42.21
2023-03-28T21:53:35.035Z,41.93
2023-03-28T21:56:02.238Z,41.95
2023-03-28T21:58:30.915Z,42.24
2023-03-28T22:00:57.840Z,42.32
2023-03-28T22:03:25.705Z,41.84
2023-03-28T22:05:52.673Z,42.19
2023-03-28T22:08:19.867Z,41.92
2023-03-28T22:10:48.721Z,41.62
2023-03-28T22:13:15.972Z,41.92
2023-03-28T22:15:42.864Z,42.00
2023-03-28T22:18:11.345Z,41.92
2023-03-28T22:20:39.409Z,42.13
2023-03-28T22:23:06.725Z,42.34
2023-03-28T22:25:35.932Z,42.28
2023-03-28T22:28:04.285Z,42.05
2023-03-28T22:30:31.915Z,41.94
2023-03-28T22:32:59.125Z,42.34
2023-03-28T22:35:26.050Z,42.07
2023-03-28T22:37:53.157Z,42.26
2023-03-28T22:40:20.108Z,42.38
2023-03-28T22:42:47.298Z,42.47
2023-03-28T22:45:15.066Z,42.28
2023-03-28T22:47:43.100Z,42.03
2023-03-28T22:50:11.460Z,42.18
2023-03-28T22:52:38.959Z,42.20
2023-03-28T22:55:06.199Z,42.18
2023-03-28T22:57:33.536Z,42.04
2023-03-28T23:00:01.749Z,42.38
2023-03-28T23:02:28.963Z,42.12
2023-03-28T23:04:57.109Z,42.51
2023-03-28T23:07:24.306Z,42.58
2023-03-28T23:09:51.058Z,42.10
2023-03-28T23:12:18.204Z,42.10
2023-03-28T23:14:45.651Z,42.61
2023-03-28T23:17:16.658Z,42.38
2023-03-28T23:19:43.649Z,42.09
2023-03-28T23:22:10.748Z,42.28
2023-03-28T23:24:38.024Z,42.28
2023-03-28T23:27:06.696Z,42.17
2023-03-28T23:29:33.493Z,42.60
2023-03-28T23:32:00.593Z,42.29
2023-03-28T23:34:27.428Z,42.28
2023-03-28T23:36:57.988Z,42.35
2023-03-28T23:39:25.220Z,42.21
2023-03-28T23:41:51.808Z,42.33
2023-03-28T23:44:18.935Z,42.45
2023-03-28T23:46:45.894Z,42.37
2023-03-28T23:49:12.918Z,42.41
2023-03-28T23:51:39.684Z,42.49
2023-03-28T23:54:07.057Z,42.55
2023-03-28T23:56:33.848Z,42.19
2023-03-28T23:59:01.098Z,42.83
